Time;durP1;ratioP1;P1;durP2;ratioP2;P2;SDS_P1;SDS_P2;PMS_P1;PMS_P2;Temp;Humidity;BMP_temperature;BMP_pressure;BME280_temperature;BME280_humidity;BME280_pressure;Samples;Min_cycle;Max_cycle;Signal;HPM_P1;HPM_P2
2023/01/19 00:01:22;;;;;;;4.03;1.60;;;;;;;;;;5091225;28;20104;-70
2023/01/19 00:03:47;;;;;;;3.33;1.63;;;;;;;;;;5072306;28;20051;-70
2023/01/19 00:06:13;;;;;;;5.60;2.83;;;;;;;;;;5091342;28;20440;-71
2023/01/19 00:08:39;;;;;;;4.75;2.38;;;;;;;;;;5091027;28;20036;-69
2023/01/19 00:11:04;;;;;;;3.65;2.00;;;;;;;;;;5091277;28;20024;-70
2023/01/19 00:13:31;;;;;;;3.42;1.65;;;;;;;;;;5090904;28;20044;-69
2023/01/19 00:15:56;;;;;;;3.13;1.70;;;;;;;;;;5091368;28;20032;-70
2023/01/19 00:18:21;;;;;;;2.95;1.63;;;;;;;;;;5090751;28;20024;-71
2023/01/19 00:20:47;;;;;;;2.53;1.40;;;;;;;;;;5091144;28;20035;-70
2023/01/19 00:23:14;;;;;;;2.67;1.40;;;;;;;;;;5090877;28;20031;-69
2023/01/19 00:25:42;;;;;;;3.67;1.40;;;;;;;;;;5090789;28;20472;-70
2023/01/19 00:28:13;;;;;;;3.78;1.50;;;;;;;;;;5090924;28;20024;-70
2023/01/19 00:30:39;;;;;;;2.13;1.33;;;;;;;;;;5090674;28;20032;-70
2023/01/19 00:33:04;;;;;;;2.88;1.40;;;;;;;;;;5090702;28;20032;-69
2023/01/19 00:35:30;;;;;;;3.05;1.30;;;;;;;;;;5090273;28;20031;-70
2023/01/19 00:37:57;;;;;;;3.28;1.70;;;;;;;;;;5090985;28;20063;-69
2023/01/19 00:40:22;;;;;;;2.33;1.27;;;;;;;;;;5090692;28;20055;-68
2023/01/19 00:42:48;;;;;;;3.35;1.52;;;;;;;;;;5090561;28;20511;-69
2023/01/19 00:45:18;;;;;;;2.67;1.60;;;;;;;;;;5090412;28;20077;-69
2023/01/19 00:47:45;;;;;;;;;;;;;;;;;;5091080;28;20039;-69
2023/01/19 00:50:12;;;;;;;2.13;1.40;;;;;;;;;;5089965;28;19912;-70
2023/01/19 00:52:39;;;;;;;4.22;1.80;;;;;;;;;;5090473;28;20032;-70
2023/01/19 00:55:08;;;;;;;5.28;1.80;;;;;;;;;;5090530;28;20110;-70
2023/01/19 00:57:34;;;;;;;4.60;1.52;;;;;;;;;;5089396;28;20847;-70
2023/01/19 01:00:00;;;;;;;3.63;1.42;;;;;;;;;;5090256;28;20107;-71
2023/01/19 01:02:26;;;;;;;2.75;1.45;;;;;;;;;;5090221;28;20032;-69
2023/01/19 01:04:53;;;;;;;2.65;1.35;;;;;;;;;;5089774;28;20161;-69
2023/01/19 01:07:20;;;;;;;3.33;1.38;;;;;;;;;;5090316;28;20028;-69
2023/01/19 01:09:46;;;;;;;6.13;1.92;;;;;;;;;;5089925;28;20047;-69
2023/01/19 01:12:11;;;;;;;2.67;1.40;;;;;;;;;;5090453;28;20467;-69
2023/01/19 01:14:37;;;;;;;2.90;1.33;;;;;;;;;;5089727;28;20455;-68
2023/01/19 01:17:02;;;;;;;3.22;1.52;;;;;;;;;;5090459;28;20452;-69
2023/01/19 01:19:28;;;;;;;3.40;1.35;;;;;;;;;;5089728;28;20043;-69
2023/01/19 01:21:54;;;;;;;2.97;1.10;;;;;;;;;;5090083;28;20023;-70
2023/01/19 01:24:19;;;;;;;3.28;1.23;;;;;;;;;;5071608;28;20089;-70
2023/01/19 01:26:45;;;;;;;4.05;1.25;;;;;;;;;;5090071;28;20473;-70
2023/01/19 01:29:11;;;;;;;3.60;1.30;;;;;;;;;;5089853;28;20024;-68
2023/01/19 01:31:36;;;;;;;2.72;1.00;;;;;;;;;;5089903;28;20031;-70
2023/01/19 01:34:01;;;;;;;3.20;1.23;;;;;;;;;;5089391;28;20415;-70
2023/01/19 01:36:30;;;;;;;2.67;1.00;;;;;;;;;;5089801;28;20036;-69
2023/01/19 01:38:56;;;;;;;3.28;1.20;;;;;;;;;;5071774;28;20035;-71
2023/01/19 01:41:22;;;;;;;3.35;1.13;;;;;;;;;;5089813;28;20024;-70
2023/01/19 01:43:48;;;;;;;2.60;1.00;;;;;;;;;;5089483;28;20035;-71
2023/01/19 01:46:15;;;;;;;3.08;1.00;;;;;;;;;;5089706;28;20024;-69
2023/01/19 01:49:01;;;;;;;3.28;1.25;;;;;;;;;;5089605;28;20024;-70
2023/01/19 01:51:31;;;;;;;4.10;1.42;;;;;;;;;;5088968;28;20111;-70
2023/01/19 01:54:15;;;;;;;5.90;1.60;;;;;;;;;;5089656;28;20043;-70
2023/01/19 01:56:46;;;;;;;2.70;1.40;;;;;;;;;;5089747;28;20032;-69
2023/01/19 01:59:24;;;;;;;3.42;1.30;;;;;;;;;;5071692;28;20059;-69
2023/01/19 02:04:37;;;;;;;4.22;1.30;;;;;;;;;;5088987;28;20043;-69
2023/01/19 02:15:19;;;;;;;3.63;1.48;;;;;;;;;;5093596;28;20039;-69
2023/01/19 02:17:45;;;;;;;5.05;1.20;;;;;;;;;;5093681;28;20032;-70
2023/01/19 02:20:11;;;;;;;2.72;1.10;;;;;;;;;;5093036;28;20104;-69
2023/01/19 02:22:46;;;;;;;2.60;1.00;;;;;;;;;;5093479;28;20047;-69
2023/01/19 02:25:12;;;;;;;3.05;1.20;;;;;;;;;;5092836;28;20032;-69
2023/01/19 02:27:38;;;;;;;3.45;1.23;;;;;;;;;;5093319;28;20031;-69
2023/01/19 02:30:05;;;;;;;2.78;1.10;;;;;;;;;;5093059;28;20032;-69
2023/01/19 02:32:30;;;;;;;3.33;0.90;;;;;;;;;;5075058;28;20539;-69
2023/01/19 02:34:55;;;;;;;3.25;1.00;;;;;;;;;;5092776;28;20032;-71
2023/01/19 02:37:21;;;;;;;2.10;0.75;;;;;;;;;;5093138;28;20028;-69
2023/01/19 02:39:51;;;;;;;1.98;0.82;;;;;;;;;;5093155;28;20021;-70
2023/01/19 02:42:21;;;;;;;1.88;0.80;;;;;;;;;;5093039;28;20097;-69
2023/01/19 02:44:48;;;;;;;1.65;0.90;;;;;;;;;;5058179;28;20035;-69
2023/01/19 02:47:14;;;;;;;2.72;0.70;;;;;;;;;;5092792;28;20135;-69
2023/01/19 02:49:40;;;;;;;4.25;0.85;;;;;;;;;;5092635;28;20460;-69
2023/01/19 02:52:14;;;;;;;2.45;0.70;;;;;;;;;;5092600;28;20024;-69
2023/01/19 02:54:54;;;;;;;2.67;0.70;;;;;;;;;;5092723;28;20472;-69
2023/01/19 02:57:48;;;;;;;1.60;0.95;;;;;;;;;;5092717;28;20028;-70
2023/01/19 03:00:24;;;;;;;3.10;0.70;;;;;;;;;;5092705;28;20122;-69
2023/01/19 03:03:01;;;;;;;1.30;0.80;;;;;;;;;;5092304;28;20035;-71
2023/01/19 03:05:41;;;;;;;1.55;0.52;;;;;;;;;;5091836;28;20559;-69
2023/01/19 03:08:26;;;;;;;1.80;0.80;;;;;;;;;;5092426;28;20103;-69
2023/01/19 03:11:00;;;;;;;1.10;0.60;;;;;;;;;;5092291;28;20024;-69
2023/01/19 03:13:41;;;;;;;0.90;0.45;;;;;;;;;;5092317;28;20024;-70
2023/01/19 03:16:19;;;;;;;1.48;0.60;;;;;;;;;;5092306;28;20028;-69
2023/01/19 03:18:50;;;;;;;2.03;0.60;;;;;;;;;;5092048;28;20024;-70
2023/01/19 03:21:18;;;;;;;2.08;0.60;;;;;;;;;;5091159;28;20024;-69
2023/01/19 03:23:45;;;;;;;2.20;0.60;;;;;;;;;;5092099;28;20077;-69
2023/01/19 03:26:16;;;;;;;1.58;0.50;;;;;;;;;;5074096;28;20103;-69
2023/01/19 03:28:44;;;;;;;1.33;0.60;;;;;;;;;;5092220;28;20024;-71
2023/01/19 03:31:15;;;;;;;1.27;0.60;;;;;;;;;;5091965;28;20032;-71
2023/01/19 03:33:46;;;;;;;2.38;0.50;;;;;;;;;;5091742;28;20036;-68
2023/01/19 03:36:18;;;;;;;1.27;0.40;;;;;;;;;;5091804;28;20487;-70
2023/01/19 03:38:46;;;;;;;0.57;0.32;;;;;;;;;;5092153;28;20426;-70
2023/01/19 03:41:15;;;;;;;1.23;0.40;;;;;;;;;;5091884;28;20028;-70
2023/01/19 03:43:42;;;;;;;1.20;0.50;;;;;;;;;;5091664;28;20028;-68
2023/01/19 03:46:09;;;;;;;1.13;0.43;;;;;;;;;;5091374;28;20099;-69
2023/01/19 03:48:36;;;;;;;1.15;0.47;;;;;;;;;;5091481;28;20103;-69
2023/01/19 03:51:07;;;;;;;1.33;0.45;;;;;;;;;;5091592;28;20035;-70
2023/01/19 03:53:33;;;;;;;3.13;0.70;;;;;;;;;;5073514;28;20380;-68
2023/01/19 03:55:58;;;;;;;0.60;0.43;;;;;;;;;;5073190;28;20534;-68
2023/01/19 03:58:24;;;;;;;1.30;0.60;;;;;;;;;;5091605;28;20032;-68
2023/01/19 04:00:49;;;;;;;1.92;0.50;;;;;;;;;;5091493;28;20048;-70
2023/01/19 04:03:16;;;;;;;1.48;0.50;;;;;;;;;;5091206;28;20028;-72
2023/01/19 04:05:43;;;;;;;0.70;0.40;;;;;;;;;;5090784;28;20407;-70
2023/01/19 04:08:09;;;;;;;1.40;0.40;;;;;;;;;;5090996;28;20081;-74
2023/01/19 04:10:35;;;;;;;1.80;0.70;;;;;;;;;;5091418;28;20453;-69
2023/01/19 04:13:01;;;;;;;1.48;0.50;;;;;;;;;;5091083;28;20028;-70
2023/01/19 04:15:28;;;;;;;0.70;0.30;;;;;;;;;;5073032;28;20040;-69
2023/01/19 04:17:56;;;;;;;1.10;0.60;;;;;;;;;;5091170;28;20179;-71
2023/01/19 04:20:21;;;;;;;1.38;0.47;;;;;;;;;;5090835;28;20020;-70
2023/01/19 04:22:48;;;;;;;0.93;0.40;;;;;;;;;;5090744;28;20043;-71
2023/01/19 04:25:14;;;;;;;2.70;0.45;;;;;;;;;;5090828;28;20028;-68
2023/01/19 04:27:40;;;;;;;1.77;0.60;;;;;;;;;;5090791;28;20034;-70
2023/01/19 04:30:06;;;;;;;1.40;0.70;;;;;;;;;;5091019;28;20020;-71
2023/01/19 04:32:31;;;;;;;1.45;0.60;;;;;;;;;;5090504;28;20020;-71
2023/01/19 04:34:57;;;;;;;2.63;0.70;;;;;;;;;;5090605;28;20073;-69
2023/01/19 04:37:23;;;;;;;2.05;0.40;;;;;;;;;;5090640;28;20513;-68
2023/01/19 04:39:48;;;;;;;0.80;0.50;;;;;;;;;;5090742;28;20023;-69
2023/01/19 04:42:14;;;;;;;1.40;0.60;;;;;;;;;;5090673;28;20025;-70
2023/01/19 04:44:39;;;;;;;0.90;0.50;;;;;;;;;;5090502;28;20035;-71
2023/01/19 04:47:04;;;;;;;1.20;0.65;;;;;;;;;;5090144;28;20071;-73
2023/01/19 04:49:30;;;;;;;1.13;0.60;;;;;;;;;;5090306;28;20016;-69
2023/01/19 04:51:55;;;;;;;1.13;0.45;;;;;;;;;;5090533;28;20020;-70
2023/01/19 04:54:21;;;;;;;1.15;0.50;;;;;;;;;;5090492;28;20013;-71
2023/01/19 04:56:46;;;;;;;4.18;0.70;;;;;;;;;;5090395;28;20169;-69
2023/01/19 04:59:12;;;;;;;1.77;0.60;;;;;;;;;;5072405;28;20027;-69
2023/01/19 05:01:38;;;;;;;2.28;0.70;;;;;;;;;;5090264;28;20509;-71
2023/01/19 05:04:05;;;;;;;1.48;0.60;;;;;;;;;;5089710;28;20039;-70
2023/01/19 05:06:32;;;;;;;2.60;0.80;;;;;;;;;;5090313;28;20055;-70
2023/01/19 05:08:57;;;;;;;1.65;0.70;;;;;;;;;;5072091;28;20024;-70
2023/01/19 05:11:23;;;;;;;2.63;0.63;;;;;;;;;;5090309;28;20039;-70
2023/01/19 05:13:48;;;;;;;2.30;0.77;;;;;;;;;;5090269;28;20020;-71
2023/01/19 05:16:14;;;;;;;1.02;0.60;;;;;;;;;;5090365;28;20039;-70
2023/01/19 05:18:39;;;;;;;1.23;0.80;;;;;;;;;;5089848;28;20030;-70
2023/01/19 05:21:06;;;;;;;0.98;0.60;;;;;;;;;;5090240;28;20063;-70
2023/01/19 05:23:32;;;;;;;2.35;0.60;;;;;;;;;;5089963;28;20391;-70
2023/01/19 05:26:02;;;;;;;2.00;0.70;;;;;;;;;;5089825;28;20539;-70
2023/01/19 05:28:28;;;;;;;1.40;0.70;;;;;;;;;;5089815;28;20024;-70
2023/01/19 05:30:54;;;;;;;2.25;0.70;;;;;;;;;;5090138;28;20458;-70
2023/01/19 05:33:20;;;;;;;1.10;0.60;;;;;;;;;;5089929;28;20032;-70
2023/01/19 05:35:49;;;;;;;2.33;0.70;;;;;;;;;;5089511;28;20021;-70
2023/01/19 05:38:14;;;;;;;1.98;0.70;;;;;;;;;;5089935;28;20055;-72
2023/01/19 05:40:39;;;;;;;3.03;1.00;;;;;;;;;;5090038;28;20059;-68
2023/01/19 05:43:05;;;;;;;2.75;0.80;;;;;;;;;;5090052;28;20606;-69
2023/01/19 05:45:31;;;;;;;1.48;0.80;;;;;;;;;;5093814;28;20060;-69
2023/01/19 05:47:56;;;;;;;2.28;0.80;;;;;;;;;;5075539;28;20511;-70
2023/01/19 05:50:22;;;;;;;2.70;0.73;;;;;;;;;;5093720;28;20030;-70
2023/01/19 05:52:47;;;;;;;2.53;0.68;;;;;;;;;;5093921;28;20050;-70
2023/01/19 05:55:13;;;;;;;1.45;0.80;;;;;;;;;;5094066;28;20395;-71
2023/01/19 05:57:38;;;;;;;1.30;0.50;;;;;;;;;;5093899;28;20052;-71
2023/01/19 06:00:04;;;;;;;1.77;0.68;;;;;;;;;;5093933;28;20027;-71
2023/01/19 06:02:30;;;;;;;3.05;0.60;;;;;;;;;;5093501;28;20060;-69
2023/01/19 06:04:55;;;;;;;2.00;0.85;;;;;;;;;;5093078;28;20039;-70
2023/01/19 06:07:21;;;;;;;1.00;0.60;;;;;;;;;;5093743;28;20244;-70
2023/01/19 06:09:46;;;;;;;1.27;0.60;;;;;;;;;;5093542;28;20031;-70
2023/01/19 06:12:12;;;;;;;1.30;0.70;;;;;;;;;;5093736;28;20028;-69
2023/01/19 06:14:38;;;;;;;1.35;0.75;;;;;;;;;;5093391;28;20491;-70
2023/01/19 06:17:05;;;;;;;1.67;0.70;;;;;;;;;;5093782;28;20036;-72
2023/01/19 06:19:31;;;;;;;1.52;0.80;;;;;;;;;;5093041;28;20028;-70
2023/01/19 06:21:57;;;;;;;2.25;0.80;;;;;;;;;;5093556;28;20028;-69
2023/01/19 06:24:24;;;;;;;3.53;1.10;;;;;;;;;;5093044;28;20112;-67
2023/01/19 06:26:49;;;;;;;1.77;1.00;;;;;;;;;;5093195;28;20441;-70
2023/01/19 06:29:15;;;;;;;1.08;0.80;;;;;;;;;;5093118;28;20035;-70
2023/01/19 06:31:40;;;;;;;1.73;0.80;;;;;;;;;;5093470;28;20020;-69
2023/01/19 06:34:06;;;;;;;0.90;0.70;;;;;;;;;;5092463;28;20028;-69
2023/01/19 06:36:32;;;;;;;1.73;0.88;;;;;;;;;;5092888;28;20105;-69
2023/01/19 06:38:57;;;;;;;1.58;0.80;;;;;;;;;;5093045;28;20043;-69
2023/01/19 06:41:23;;;;;;;1.73;0.90;;;;;;;;;;5093053;28;20467;-69
2023/01/19 06:43:48;;;;;;;2.95;0.77;;;;;;;;;;5092839;28;20464;-70
2023/01/19 06:46:13;;;;;;;1.48;0.90;;;;;;;;;;5092820;28;20028;-72
2023/01/19 06:48:39;;;;;;;1.20;0.80;;;;;;;;;;5092391;28;20089;-70
2023/01/19 06:51:05;;;;;;;2.22;0.80;;;;;;;;;;5092979;28;20031;-70
2023/01/19 06:53:32;;;;;;;0.85;0.68;;;;;;;;;;5092797;28;20070;-70
2023/01/19 06:55:59;;;;;;;1.00;0.60;;;;;;;;;;5092747;28;20035;-70
2023/01/19 06:58:26;;;;;;;1.30;0.75;;;;;;;;;;5092598;28;20024;-69
2023/01/19 07:00:51;;;;;;;1.92;1.10;;;;;;;;;;5092584;28;20055;-72
2023/01/19 07:03:19;;;;;;;3.00;1.90;;;;;;;;;;5092314;28;20040;-72
2023/01/19 07:05:44;;;;;;;3.38;1.90;;;;;;;;;;5091801;28;20391;-70
2023/01/19 07:08:10;;;;;;;2.17;1.30;;;;;;;;;;5092408;28;20028;-70
2023/01/19 07:10:36;;;;;;;3.08;1.30;;;;;;;;;;5092535;28;20032;-70
2023/01/19 07:13:01;;;;;;;1.77;1.17;;;;;;;;;;5092558;28;20567;-70
2023/01/19 07:15:27;;;;;;;1.77;1.10;;;;;;;;;;5092121;28;20099;-70
2023/01/19 07:17:52;;;;;;;2.05;0.90;;;;;;;;;;5092525;28;20537;-69
2023/01/19 07:20:18;;;;;;;2.10;1.10;;;;;;;;;;5091651;28;20046;-71
2023/01/19 07:22:45;;;;;;;2.53;1.05;;;;;;;;;;5092036;28;20434;-69
2023/01/19 07:25:11;;;;;;;1.80;1.00;;;;;;;;;;5091525;28;20071;-73
2023/01/19 07:27:37;;;;;;;2.13;1.13;;;;;;;;;;5091952;28;20440;-75
2023/01/19 07:30:03;;;;;;;2.08;0.80;;;;;;;;;;5092030;28;20063;-74
2023/01/19 07:32:29;;;;;;;2.33;1.00;;;;;;;;;;5092049;28;20024;-76
2023/01/19 07:34:54;;;;;;;3.28;1.40;;;;;;;;;;5091657;28;20427;-74
2023/01/19 07:37:20;;;;;;;5.95;1.40;;;;;;;;;;5091803;28;20110;-75
2023/01/19 07:39:45;;;;;;;2.58;1.30;;;;;;;;;;5091629;28;20031;-74
2023/01/19 07:42:11;;;;;;;3.47;1.42;;;;;;;;;;5091833;28;20077;-75
2023/01/19 07:44:36;;;;;;;1.83;1.10;;;;;;;;;;5091609;28;20035;-75
2023/01/19 07:47:02;;;;;;;2.10;1.15;;;;;;;;;;5091538;28;20127;-75
2023/01/19 07:49:27;;;;;;;2.30;1.10;;;;;;;;;;5091304;28;20024;-75
2023/01/19 07:51:55;;;;;;;1.77;1.10;;;;;;;;;;5091927;28;20169;-74
2023/01/19 07:54:21;;;;;;;3.45;1.30;;;;;;;;;;5091772;28;20032;-74
2023/01/19 07:56:46;;;;;;;3.05;0.90;;;;;;;;;;5091417;28;20024;-73
2023/01/19 07:59:11;;;;;;;2.22;1.00;;;;;;;;;;5091433;28;20487;-74
2023/01/19 08:01:37;;;;;;;2.35;1.00;;;;;;;;;;5091336;28;20052;-74
2023/01/19 08:04:02;;;;;;;3.00;1.00;;;;;;;;;;5072253;28;20031;-76
2023/01/19 08:06:37;;;;;;;2.92;0.93;;;;;;;;;;5090843;28;20027;-75
2023/01/19 08:09:06;;;;;;;2.22;1.10;;;;;;;;;;5091036;28;20020;-74
2023/01/19 08:11:32;;;;;;;3.03;1.15;;;;;;;;;;5091530;28;20031;-76
2023/01/19 08:13:57;;;;;;;3.45;1.10;;;;;;;;;;5091272;28;20103;-74
2023/01/19 08:16:23;;;;;;;2.47;1.20;;;;;;;;;;5091157;28;20111;-73
2023/01/19 08:18:48;;;;;;;2.15;1.10;;;;;;;;;;5090795;28;20032;-77
2023/01/19 08:21:13;;;;;;;2.35;1.10;;;;;;;;;;5090936;28;20016;-73
2023/01/19 08:23:39;;;;;;;4.35;1.15;;;;;;;;;;5090852;28;20384;-75
2023/01/19 08:26:37;;;;;;;2.30;1.30;;;;;;;;;;5090552;28;20028;-75
2023/01/19 08:29:04;;;;;;;1.88;1.27;;;;;;;;;;5046228;28;20047;-73
2023/01/19 08:31:30;;;;;;;3.17;1.30;;;;;;;;;;5090933;28;20487;-75
2023/01/19 08:33:55;;;;;;;3.75;1.20;;;;;;;;;;5090743;28;20051;-75
2023/01/19 08:36:22;;;;;;;4.85;1.80;;;;;;;;;;5072201;28;20372;-74
2023/01/19 08:38:48;;;;;;;4.93;1.70;;;;;;;;;;5090700;28;20032;-73
2023/01/19 08:41:15;;;;;;;2.80;1.40;;;;;;;;;;5072468;28;20028;-71
2023/01/19 08:43:40;;;;;;;3.05;1.20;;;;;;;;;;5090754;28;20028;-72
2023/01/19 08:46:06;;;;;;;3.20;1.15;;;;;;;;;;5090511;28;20097;-71
2023/01/19 08:48:31;;;;;;;3.15;1.13;;;;;;;;;;5090147;28;20468;-73
2023/01/19 08:50:57;;;;;;;4.47;1.23;;;;;;;;;;5090466;28;20028;-70
2023/01/19 08:53:23;;;;;;;3.85;1.60;;;;;;;;;;5090534;28;20545;-71
2023/01/19 08:55:53;;;;;;;3.75;1.35;;;;;;;;;;5090272;28;20036;-70
2023/01/19 08:58:18;;;;;;;2.50;1.20;;;;;;;;;;5090585;28;20137;-72
2023/01/19 09:00:44;;;;;;;1.98;1.10;;;;;;;;;;5090033;28;20056;-70
2023/01/19 09:03:11;;;;;;;3.03;1.30;;;;;;;;;;5090206;28;20028;-70
2023/01/19 09:05:37;;;;;;;2.50;1.30;;;;;;;;;;5089727;28;20027;-72
2023/01/19 09:08:07;;;;;;;2.78;1.50;;;;;;;;;;5072024;28;20486;-70
2023/01/19 09:10:34;;;;;;;3.70;1.80;;;;;;;;;;5090222;28;20020;-70
2023/01/19 09:13:06;;;;;;;4.40;1.92;;;;;;;;;;5090533;28;20384;-71
2023/01/19 09:15:34;;;;;;;2.97;1.20;;;;;;;;;;5090099;28;20027;-72
2023/01/19 09:18:00;;;;;;;4.75;1.60;;;;;;;;;;5089189;28;20433;-70
2023/01/19 09:20:29;;;;;;;5.55;1.50;;;;;;;;;;5089452;28;20028;-72
2023/01/19 09:22:57;;;;;;;4.47;1.27;;;;;;;;;;5071898;28;20466;-70
2023/01/19 09:25:23;;;;;;;3.05;1.50;;;;;;;;;;5089768;28;20058;-70
2023/01/19 09:27:49;;;;;;;2.75;1.38;;;;;;;;;;5090098;28;20468;-70
2023/01/19 09:30:15;;;;;;;2.60;1.20;;;;;;;;;;5089751;28;20032;-71
2023/01/19 09:32:41;;;;;;;3.70;1.13;;;;;;;;;;5090060;28;20628;-71
2023/01/19 09:35:07;;;;;;;3.67;1.20;;;;;;;;;;5089451;28;20388;-75
2023/01/19 09:37:32;;;;;;;2.60;1.20;;;;;;;;;;5089502;28;20483;-72
2023/01/19 09:39:58;;;;;;;2.83;1.23;;;;;;;;;;5089524;28;20032;-74
2023/01/19 09:42:32;;;;;;;1.73;0.98;;;;;;;;;;5089845;28;20075;-75
2023/01/19 09:44:59;;;;;;;3.63;0.90;;;;;;;;;;5089523;28;20103;-75
2023/01/19 09:47:28;;;;;;;3.65;1.02;;;;;;;;;;5089591;28;20031;-74
2023/01/19 09:50:12;;;;;;;2.05;1.00;;;;;;;;;;5071728;28;20078;-75
2023/01/19 09:52:41;;;;;;;4.03;1.17;;;;;;;;;;5089967;28;20103;-76
2023/01/19 09:55:19;;;;;;;3.67;1.00;;;;;;;;;;5089805;28;20016;-74
2023/01/19 09:57:45;;;;;;;7.40;2.85;;;;;;;;;;5089566;28;20020;-76
2023/01/19 10:00:16;;;;;;;2.60;1.15;;;;;;;;;;5089652;28;20084;-77
2023/01/19 10:02:52;;;;;;;5.20;0.98;;;;;;;;;;5089697;28;20572;-73
2023/01/19 10:05:28;;;;;;;3.22;1.10;;;;;;;;;;5089091;28;20491;-77
2023/01/19 10:08:15;;;;;;;2.55;0.95;;;;;;;;;;5089580;28;20028;-77
2023/01/19 10:10:46;;;;;;;2.83;1.10;;;;;;;;;;5089594;28;20816;-76
2023/01/19 10:13:37;;;;;;;4.00;1.10;;;;;;;;;;5089773;28;20495;-73
2023/01/19 10:16:27;;;;;;;1.65;0.70;;;;;;;;;;5089242;28;20028;-77
2023/01/19 10:18:56;;;;;;;2.60;0.82;;;;;;;;;;5089497;28;20467;-77
2023/01/19 10:21:26;;;;;;;2.17;0.80;;;;;;;;;;5089229;28;20081;-78
2023/01/19 10:24:02;;;;;;;1.17;0.65;;;;;;;;;;5089318;28;20025;-79
2023/01/19 10:26:35;;;;;;;1.77;0.73;;;;;;;;;;5089012;28;20024;-78
2023/01/19 10:29:36;;;;;;;1.45;0.77;;;;;;;;;;5089925;28;20518;-78
2023/01/19 10:32:12;;;;;;;1.73;0.80;;;;;;;;;;5092771;28;20020;-78
2023/01/19 10:34:38;;;;;;;3.35;0.73;;;;;;;;;;5092857;28;20046;-79
2023/01/19 10:37:27;;;;;;;4.53;1.90;;;;;;;;;;5074370;28;20394;-81
2023/01/19 10:39:56;;;;;;;2.22;0.80;;;;;;;;;;5093002;28;20538;-79
2023/01/19 10:42:21;;;;;;;1.42;0.60;;;;;;;;;;5092729;28;20023;-76
2023/01/19 10:44:48;;;;;;;1.48;0.70;;;;;;;;;;5093046;28;20111;-80
2023/01/19 10:47:19;;;;;;;1.35;0.70;;;;;;;;;;5092558;28;20391;-77
2023/01/19 10:49:45;;;;;;;;;;;;;;;;;;5093354;28;20032;-76
2023/01/19 10:52:30;;;;;;;2.38;0.98;;;;;;;;;;5092866;28;19915;-77
2023/01/19 10:54:58;;;;;;;3.13;1.35;;;;;;;;;;5093003;28;20043;-73
2023/01/19 10:57:33;;;;;;;2.10;0.65;;;;;;;;;;5092201;28;20064;-76
2023/01/19 10:59:58;;;;;;;2.33;0.70;;;;;;;;;;5092717;28;20028;-78
2023/01/19 11:02:27;;;;;;;2.17;0.80;;;;;;;;;;5092169;28;20044;-76
2023/01/19 11:04:58;;;;;;;3.33;0.80;;;;;;;;;;5074015;28;20059;-74
2023/01/19 11:07:32;;;;;;;2.42;0.80;;;;;;;;;;5092174;28;20086;-75
2023/01/19 11:10:19;;;;;;;3.75;0.70;;;;;;;;;;5092667;28;20024;-76
2023/01/19 11:12:57;;;;;;;2.08;0.80;;;;;;;;;;5092346;28;20165;-73
2023/01/19 11:15:24;;;;;;;3.15;0.70;;;;;;;;;;5092526;28;20483;-73
2023/01/19 11:17:51;;;;;;;1.30;0.68;;;;;;;;;;5091886;28;20036;-73
2023/01/19 11:20:29;;;;;;;3.05;1.05;;;;;;;;;;5092005;28;20154;-74
2023/01/19 11:23:40;;;;;;;4.50;1.20;;;;;;;;;;5092039;28;20053;-72
2023/01/19 11:26:06;;;;;;;;;;;;;;;;;;5092350;28;20468;-72
2023/01/19 11:28:47;;;;;;;2.70;1.20;;;;;;;;;;5092393;28;19912;-71
2023/01/19 11:31:12;;;;;;;5.15;1.38;;;;;;;;;;5092254;28;20442;-71
2023/01/19 11:33:50;;;;;;;2.72;1.40;;;;;;;;;;5091795;28;20096;-70
2023/01/19 11:36:20;;;;;;;5.72;1.23;;;;;;;;;;5091868;28;20173;-73
2023/01/19 11:38:49;;;;;;;3.03;0.98;;;;;;;;;;5091636;28;20067;-77
2023/01/19 11:41:18;;;;;;;5.35;1.15;;;;;;;;;;5090659;28;20380;-71
2023/01/19 11:43:46;;;;;;;3.45;0.80;;;;;;;;;;5091728;28;20044;-72
2023/01/19 11:46:12;;;;;;;2.08;0.80;;;;;;;;;;5091778;28;20396;-74
2023/01/19 11:49:01;;;;;;;4.25;1.00;;;;;;;;;;5091189;28;20024;-73
2023/01/19 11:51:42;;;;;;;3.17;0.80;;;;;;;;;;5091720;28;20031;-74
2023/01/19 11:54:24;;;;;;;3.33;0.90;;;;;;;;;;5091982;28;20027;-72
2023/01/19 11:56:51;;;;;;;2.70;1.00;;;;;;;;;;5091184;28;20113;-73
2023/01/19 11:59:17;;;;;;;6.78;1.65;;;;;;;;;;5091726;28;20070;-74
2023/01/19 12:01:56;;;;;;;6.97;2.60;;;;;;;;;;5090983;28;20044;-70
2023/01/19 12:04:26;;;;;;;6.25;2.00;;;;;;;;;;5072693;28;20024;-71
2023/01/19 12:06:56;;;;;;;6.20;0.90;;;;;;;;;;5091304;28;20028;-71
2023/01/19 12:09:26;;;;;;;4.32;1.00;;;;;;;;;;5091467;28;20036;-69
2023/01/19 12:12:03;;;;;;;8.25;1.60;;;;;;;;;;5091483;28;20357;-68
2023/01/19 12:15:02;;;;;;;3.55;1.10;;;;;;;;;;5091481;28;20039;-74
2023/01/19 12:17:32;;;;;;;3.42;1.10;;;;;;;;;;5091084;28;20031;-75
2023/01/19 12:20:05;;;;;;;4.60;1.10;;;;;;;;;;5090951;28;20099;-78
2023/01/19 12:22:39;;;;;;;6.68;1.60;;;;;;;;;;5090892;28;20027;-75
2023/01/19 12:25:25;;;;;;;11.90;1.40;;;;;;;;;;5090914;28;20518;-77
2023/01/19 12:27:52;;;;;;;9.27;1.27;;;;;;;;;;5091107;28;20020;-76
2023/01/19 12:30:21;;;;;;;5.13;1.10;;;;;;;;;;5091150;28;20047;-77
2023/01/19 12:32:47;;;;;;;7.72;1.30;;;;;;;;;;5090855;28;20031;-76
2023/01/19 12:35:50;;;;;;;4.95;1.20;;;;;;;;;;5090718;28;20107;-77
2023/01/19 12:38:45;;;;;;;3.47;1.23;;;;;;;;;;5090246;28;20059;-75
2023/01/19 12:41:21;;;;;;;4.68;0.95;;;;;;;;;;5090649;28;20499;-76
2023/01/19 12:44:08;;;;;;;4.70;1.55;;;;;;;;;;5090355;28;20110;-77
2023/01/19 12:46:33;;;;;;;2.88;0.88;;;;;;;;;;5092009;28;20027;-81
2023/01/19 12:49:47;;;;;;;3.15;0.88;;;;;;;;;;5090102;28;20024;-76
2023/01/19 12:52:33;;;;;;;5.88;1.00;;;;;;;;;;5027548;28;20037;-78
2023/01/19 12:55:05;;;;;;;7.22;1.23;;;;;;;;;;5027903;28;20045;-77
2023/01/19 12:57:34;;;;;;;5.03;0.95;;;;;;;;;;5067958;28;20119;-76
2023/01/19 13:00:23;;;;;;;2.88;0.82;;;;;;;;;;5090231;28;20024;-74
2023/01/19 13:02:53;;;;;;;1.70;0.70;;;;;;;;;;5089548;28;20036;-78
2023/01/19 13:05:31;;;;;;;4.22;0.73;;;;;;;;;;5090033;28;20819;-75
2023/01/19 13:08:06;;;;;;;1.73;0.77;;;;;;;;;;5090174;28;20020;-78
2023/01/19 13:11:08;;;;;;;4.25;0.90;;;;;;;;;;5090458;28;20032;-80
2023/01/19 13:13:42;;;;;;;4.18;0.90;;;;;;;;;;5090332;28;20059;-79
2023/01/19 13:16:17;;;;;;;4.78;0.90;;;;;;;;;;5090611;28;20039;-75
2023/01/19 13:18:52;;;;;;;3.53;0.90;;;;;;;;;;5089279;28;20051;-75
2023/01/19 13:21:30;;;;;;;4.78;1.08;;;;;;;;;;5090093;28;20073;-78
2023/01/19 13:24:03;;;;;;;3.92;1.20;;;;;;;;;;5089932;28;20032;-79
2023/01/19 13:26:36;;;;;;;3.85;0.88;;;;;;;;;;5090175;28;20054;-77
2023/01/19 13:29:06;;;;;;;3.85;1.17;;;;;;;;;;5089626;28;20426;-77
2023/01/19 13:31:37;;;;;;;2.90;1.17;;;;;;;;;;5090184;28;20024;-79
2023/01/19 13:34:03;;;;;;;;;;;;;;;;;;5071852;28;20149;-78
2023/01/19 13:36:29;;;;;;;6.18;1.10;;;;;;;;;;5090088;28;19994;-76
2023/01/19 13:38:58;;;;;;;2.85;0.70;;;;;;;;;;5089618;28;20028;-79
2023/01/19 13:41:27;;;;;;;4.97;0.95;;;;;;;;;;5089880;28;20089;-77
2023/01/19 13:44:01;;;;;;;4.97;1.00;;;;;;;;;;5089797;28;20499;-77
2023/01/19 13:46:28;;;;;;;5.30;1.02;;;;;;;;;;5071957;28;20035;-76
2023/01/19 13:49:03;;;;;;;7.28;1.35;;;;;;;;;;5089252;28;20498;-78
2023/01/19 13:51:28;;;;;;;3.25;1.48;;;;;;;;;;5090092;28;20021;-78
2023/01/19 13:53:55;;;;;;;3.97;1.25;;;;;;;;;;5089713;28;20418;-75
2023/01/19 13:56:22;;;;;;;3.53;1.08;;;;;;;;;;5089936;28;20069;-79
2023/01/19 13:59:11;;;;;;;3.38;0.95;;;;;;;;;;5089264;28;20030;-81
2023/01/19 14:01:39;;;;;;;4.55;1.00;;;;;;;;;;5089714;28;20040;-76
2023/01/19 14:04:05;;;;;;;3.83;1.00;;;;;;;;;;5089823;28;20036;-76
2023/01/19 14:06:45;;;;;;;2.10;0.70;;;;;;;;;;5093924;28;20024;-73
2023/01/19 14:09:17;;;;;;;2.30;0.90;;;;;;;;;;5093551;28;20028;-72
2023/01/19 14:11:44;;;;;;;6.38;1.13;;;;;;;;;;5093708;28;20028;-74
2023/01/19 14:14:26;;;;;;;7.03;1.77;;;;;;;;;;5093559;28;20096;-76
2023/01/19 14:16:52;;;;;;;5.18;1.48;;;;;;;;;;5093546;28;20028;-70
2023/01/19 14:19:17;;;;;;;5.35;2.20;;;;;;;;;;5092557;28;20031;-72
2023/01/19 14:21:43;;;;;;;4.82;1.77;;;;;;;;;;5093246;28;20028;-70
2023/01/19 14:24:15;;;;;;;6.63;1.90;;;;;;;;;;5093148;28;20098;-72
2023/01/19 14:26:47;;;;;;;4.72;1.38;;;;;;;;;;5093318;28;20399;-71
2023/01/19 14:29:17;;;;;;;4.32;1.02;;;;;;;;;;5093395;28;20441;-71
2023/01/19 14:31:44;;;;;;;2.78;1.10;;;;;;;;;;5093270;28;20024;-71
2023/01/19 14:34:32;;;;;;;2.15;0.85;;;;;;;;;;5092800;28;20403;-72
2023/01/19 14:36:59;;;;;;;3.17;0.90;;;;;;;;;;5093251;28;20116;-74
2023/01/19 14:39:26;;;;;;;6.63;1.00;;;;;;;;;;5092582;28;20024;-69
2023/01/19 14:41:53;;;;;;;10.63;3.35;;;;;;;;;;5093255;28;20028;-69
2023/01/19 14:44:27;;;;;;;9.95;2.22;;;;;;;;;;5092794;28;20224;-69
2023/01/19 14:46:54;;;;;;;4.90;1.40;;;;;;;;;;5093339;28;20028;-69
2023/01/19 14:49:28;;;;;;;5.00;1.30;;;;;;;;;;5092250;28;20399;-70
2023/01/19 14:51:54;;;;;;;6.07;2.03;;;;;;;;;;5092937;28;20506;-69
2023/01/19 14:54:30;;;;;;;9.80;2.70;;;;;;;;;;5092528;28;20461;-69
2023/01/19 14:56:55;;;;;;;8.23;2.60;;;;;;;;;;5093535;28;20032;-76
2023/01/19 14:59:21;;;;;;;6.25;1.90;;;;;;;;;;5092096;28;20395;-78
2023/01/19 15:01:46;;;;;;;6.68;1.83;;;;;;;;;;5092617;28;20059;-77
2023/01/19 15:04:11;;;;;;;6.93;1.50;;;;;;;;;;5092045;28;20032;-77
2023/01/19 15:06:44;;;;;;;6.45;1.40;;;;;;;;;;5092780;28;20105;-79
2023/01/19 15:09:12;;;;;;;2.45;0.93;;;;;;;;;;5092322;28;20024;-78